sensor_id;sensor_type;location;lat;lon;timestamp;temperature;humidity
71396;DHT22;59888;55.814;37.132;2023-08-07T00:00:08;25.95;44.96
71396;DHT22;59888;55.814;37.132;2023-08-07T00:02:35;25.93;45.23
71396;DHT22;59888;55.814;37.132;2023-08-07T00:05:01;25.88;45.29
71396;DHT22;59888;55.814;37.132;2023-08-07T00:07:30;25.89;45.25
71396;DHT22;59888;55.814;37.132;2023-08-07T00:09:56;25.93;45.12
71396;DHT22;59888;55.814;37.132;2023-08-07T00:12:22;25.92;45.33
71396;DHT22;59888;55.814;37.132;2023-08-07T00:14:52;25.91;45.67
71396;DHT22;59888;55.814;37.132;2023-08-07T00:17:19;25.90;45.09
71396;DHT22;59888;55.814;37.132;2023-08-07T00:19:44;25.83;45.34
71396;DHT22;59888;55.814;37.132;2023-08-07T00:22:10;25.82;45.39
71396;DHT22;59888;55.814;37.132;2023-08-07T00:24:36;25.81;45.24
71396;DHT22;59888;55.814;37.132;2023-08-07T00:27:03;25.82;45.48
71396;DHT22;59888;55.814;37.132;2023-08-07T00:29:29;25.78;45.47
71396;DHT22;59888;55.814;37.132;2023-08-07T00:31:55;25.75;45.56
71396;DHT22;59888;55.814;37.132;2023-08-07T00:34:21;25.75;45.60
71396;DHT22;59888;55.814;37.132;2023-08-07T00:36:47;25.74;45.58
71396;DHT22;59888;55.814;37.132;2023-08-07T00:39:13;25.75;45.55
71396;DHT22;59888;55.814;37.132;2023-08-07T00:41:39;25.75;45.57
71396;DHT22;59888;55.814;37.132;2023-08-07T00:44:05;25.73;45.62
71396;DHT22;59888;55.814;37.132;2023-08-07T00:46:34;25.71;45.72
71396;DHT22;59888;55.814;37.132;2023-08-07T00:49:00;25.68;45.69
71396;DHT22;59888;55.814;37.132;2023-08-07T00:51:26;25.65;45.82
71396;DHT22;59888;55.814;37.132;2023-08-07T00:53:53;25.64;45.86
71396;DHT22;59888;55.814;37.132;2023-08-07T00:56:19;25.60;45.87
71396;DHT22;59888;55.814;37.132;2023-08-07T00:58:45;25.59;45.92
71396;DHT22;59888;55.814;37.132;2023-08-07T01:01:12;25.56;46.02
71396;DHT22;59888;55.814;37.132;2023-08-07T01:03:38;25.50;46.47
71396;DHT22;59888;55.814;37.132;2023-08-07T01:06:04;25.48;46.29
71396;DHT22;59888;55.814;37.132;2023-08-07T01:08:30;25.49;46.16
71396;DHT22;59888;55.814;37.132;2023-08-07T01:13:36;25.48;46.76
71396;DHT22;59888;55.814;37.132;2023-08-07T01:16:09;25.46;46.64
71396;DHT22;59888;55.814;37.132;2023-08-07T01:18:38;25.42;46.42
71396;DHT22;59888;55.814;37.132;2023-08-07T01:21:04;25.40;46.45
71396;DHT22;59888;55.814;37.132;2023-08-07T01:23:30;25.38;46.53
71396;DHT22;59888;55.814;37.132;2023-08-07T01:25:56;25.39;46.44
71396;DHT22;59888;55.814;37.132;2023-08-07T01:28:38;25.38;47.34
71396;DHT22;59888;55.814;37.132;2023-08-07T01:31:10;25.37;46.68
71396;DHT22;59888;55.814;37.132;2023-08-07T01:33:50;25.35;47.03
71396;DHT22;59888;55.814;37.132;2023-08-07T01:36:19;25.35;46.65
71396;DHT22;59888;55.814;37.132;2023-08-07T01:38:48;25.33;46.79
71396;DHT22;59888;55.814;37.132;2023-08-07T01:41:14;25.32;46.58
71396;DHT22;59888;55.814;37.132;2023-08-07T01:43:40;25.32;46.69
71396;DHT22;59888;55.814;37.132;2023-08-07T01:46:06;25.29;46.73
71396;DHT22;59888;55.814;37.132;2023-08-07T01:48:32;25.29;46.76
71396;DHT22;59888;55.814;37.132;2023-08-07T01:50:59;25.25;46.83
71396;DHT22;59888;55.814;37.132;2023-08-07T01:53:24;25.23;46.89
71396;DHT22;59888;55.814;37.132;2023-08-07T01:55:50;25.20;46.99
71396;DHT22;59888;55.814;37.132;2023-08-07T01:58:16;25.21;46.83
71396;DHT22;59888;55.814;37.132;2023-08-07T02:00:42;25.21;46.98
71396;DHT22;59888;55.814;37.132;2023-08-07T02:03:08;25.23;46.92
71396;DHT22;59888;55.814;37.132;2023-08-07T02:05:35;25.27;46.96
71396;DHT22;59888;55.814;37.132;2023-08-07T02:08:01;25.28;46.85
71396;DHT22;59888;55.814;37.132;2023-08-07T02:10:27;25.27;47.82
71396;DHT22;59888;55.814;37.132;2023-08-07T02:12:54;25.27;47.60
71396;DHT22;59888;55.814;37.132;2023-08-07T02:15:20;25.27;47.03
71396;DHT22;59888;55.814;37.132;2023-08-07T02:17:51;25.31;46.84
71396;DHT22;59888;55.814;37.132;2023-08-07T02:20:17;25.32;46.79
71396;DHT22;59888;55.814;37.132;2023-08-07T02:22:44;25.33;46.93
71396;DHT22;59888;55.814;37.132;2023-08-07T02:25:13;25.33;46.83
71396;DHT22;59888;55.814;37.132;2023-08-07T02:27:39;25.33;46.88
71396;DHT22;59888;55.814;37.132;2023-08-07T02:30:06;25.33;46.88
71396;DHT22;59888;55.814;37.132;2023-08-07T02:32:32;25.36;46.95
71396;DHT22;59888;55.814;37.132;2023-08-07T02:34:58;25.36;46.99
71396;DHT22;59888;55.814;37.132;2023-08-07T02:37:24;25.38;47.07
71396;DHT22;59888;55.814;37.132;2023-08-07T02:39:50;25.40;47.14
71396;DHT22;59888;55.814;37.132;2023-08-07T02:42:17;25.43;46.98
71396;DHT22;59888;55.814;37.132;2023-08-07T02:44:42;25.43;46.96
71396;DHT22;59888;55.814;37.132;2023-08-07T02:47:10;25.44;47.05
71396;DHT22;59888;55.814;37.132;2023-08-07T02:49:37;25.48;46.94
71396;DHT22;59888;55.814;37.132;2023-08-07T02:52:03;25.53;46.88
71396;DHT22;59888;55.814;37.132;2023-08-07T02:54:29;25.61;46.68
71396;DHT22;59888;55.814;37.132;2023-08-07T02:56:58;25.67;46.44
71396;DHT22;59888;55.814;37.132;2023-08-07T02:59:24;25.74;46.54
71396;DHT22;59888;55.814;37.132;2023-08-07T03:01:50;25.80;46.41
71396;DHT22;59888;55.814;37.132;2023-08-07T03:04:16;25.86;46.31
71396;DHT22;59888;55.814;37.132;2023-08-07T03:06:42;25.90;46.20
71396;DHT22;59888;55.814;37.132;2023-08-07T03:09:08;25.98;46.04
71396;DHT22;59888;55.814;37.132;2023-08-07T03:11:34;26.04;46.12
71396;DHT22;59888;55.814;37.132;2023-08-07T03:14:00;26.08;46.22
71396;DHT22;59888;55.814;37.132;2023-08-07T03:16:26;26.12;46.25
71396;DHT22;59888;55.814;37.132;2023-08-07T03:18:52;26.19;45.93
71396;DHT22;59888;55.814;37.132;2023-08-07T03:21:18;26.25;46.09
71396;DHT22;59888;55.814;37.132;2023-08-07T03:23:44;26.32;45.93
71396;DHT22;59888;55.814;37.132;2023-08-07T03:26:13;26.36;45.79
71396;DHT22;59888;55.814;37.132;2023-08-07T03:28:39;26.43;45.65
71396;DHT22;59888;55.814;37.132;2023-08-07T03:31:05;26.50;45.37
71396;DHT22;59888;55.814;37.132;2023-08-07T03:33:35;26.56;45.51
71396;DHT22;59888;55.814;37.132;2023-08-07T03:36:01;26.64;45.25
71396;DHT22;59888;55.814;37.132;2023-08-07T03:38:28;26.68;45.34
71396;DHT22;59888;55.814;37.132;2023-08-07T03:40:55;26.69;45.38
71396;DHT22;59888;55.814;37.132;2023-08-07T03:43:22;26.73;45.12
71396;DHT22;59888;55.814;37.132;2023-08-07T03:45:54;26.83;45.27
71396;DHT22;59888;55.814;37.132;2023-08-07T03:48:21;26.89;45.00
71396;DHT22;59888;55.814;37.132;2023-08-07T03:50:50;26.95;45.19
71396;DHT22;59888;55.814;37.132;2023-08-07T03:53:17;27.06;44.60
71396;DHT22;59888;55.814;37.132;2023-08-07T03:55:51;27.15;44.69
71396;DHT22;59888;55.814;37.132;2023-08-07T03:58:20;27.22;44.33
71396;DHT22;59888;55.814;37.132;2023-08-07T04:00:46;27.30;43.97
71396;DHT22;59888;55.814;37.132;2023-08-07T04:03:12;27.38;43.71
71396;DHT22;59888;55.814;37.132;2023-08-07T04:05:37;27.43;43.74
71396;DHT22;59888;55.814;37.132;2023-08-07T04:08:06;27.51;43.84
71396;DHT22;59888;55.814;37.132;2023-08-07T04:10:32;27.58;43.90
71396;DHT22;59888;55.814;37.132;2023-08-07T04:12:58;27.61;43.71
71396;DHT22;59888;55.814;37.132;2023-08-07T04:15:24;27.68;43.54
71396;DHT22;59888;55.814;37.132;2023-08-07T04:17:50;27.74;43.49
71396;DHT22;59888;55.814;37.132;2023-08-07T04:20:16;27.84;42.91
71396;DHT22;59888;55.814;37.132;2023-08-07T04:22:42;27.90;43.03
71396;DHT22;59888;55.814;37.132;2023-08-07T04:25:08;27.97;43.07
71396;DHT22;59888;55.814;37.132;2023-08-07T04:27:34;28.02;42.85
71396;DHT22;59888;55.814;37.132;2023-08-07T04:30:00;28.11;42.69
71396;DHT22;59888;55.814;37.132;2023-08-07T04:32:26;28.20;42.63
71396;DHT22;59888;55.814;37.132;2023-08-07T04:34:52;28.30;42.47
71396;DHT22;59888;55.814;37.132;2023-08-07T04:37:18;28.39;42.29
71396;DHT22;59888;55.814;37.132;2023-08-07T04:39:44;28.45;42.06
71396;DHT22;59888;55.814;37.132;2023-08-07T04:42:10;28.54;41.95
71396;DHT22;59888;55.814;37.132;2023-08-07T04:44:36;28.62;41.71
71396;DHT22;59888;55.814;37.132;2023-08-07T04:47:02;28.69;41.54
71396;DHT22;59888;55.814;37.132;2023-08-07T04:49:28;28.74;41.45
71396;DHT22;59888;55.814;37.132;2023-08-07T04:51:54;28.75;41.29
71396;DHT22;59888;55.814;37.132;2023-08-07T04:54:20;28.84;41.04
71396;DHT22;59888;55.814;37.132;2023-08-07T04:56:46;28.91;41.14
71396;DHT22;59888;55.814;37.132;2023-08-07T04:59:12;28.93;40.81
71396;DHT22;59888;55.814;37.132;2023-08-07T05:01:38;28.99;40.72
71396;DHT22;59888;55.814;37.132;2023-08-07T05:04:04;29.07;40.82
71396;DHT22;59888;55.814;37.132;2023-08-07T05:06:31;29.15;40.74
71396;DHT22;59888;55.814;37.132;2023-08-07T05:08:57;29.21;40.71
71396;DHT22;59888;55.814;37.132;2023-08-07T05:11:22;29.29;40.45
71396;DHT22;59888;55.814;37.132;2023-08-07T05:13:48;29.32;40.18
71396;DHT22;59888;55.814;37.132;2023-08-07T05:16:15;29.35;40.09
71396;DHT22;59888;55.814;37.132;2023-08-07T05:18:40;29.35;40.18
71396;DHT22;59888;55.814;37.132;2023-08-07T05:21:06;29.46;40.20
71396;DHT22;59888;55.814;37.132;2023-08-07T05:23:34;29.57;40.08
71396;DHT22;59888;55.814;37.132;2023-08-07T05:26:03;29.66;39.98
71396;DHT22;59888;55.814;37.132;2023-08-07T05:28:29;29.75;39.52
71396;DHT22;59888;55.814;37.132;2023-08-07T05:30:55;29.72;39.23
71396;DHT22;59888;55.814;37.132;2023-08-07T05:33:21;29.71;39.10
71396;DHT22;59888;55.814;37.132;2023-08-07T05:35:47;29.72;39.13
71396;DHT22;59888;55.814;37.132;2023-08-07T05:38:13;29.77;38.96
71396;DHT22;59888;55.814;37.132;2023-08-07T05:40:39;29.78;39.17
71396;DHT22;59888;55.814;37.132;2023-08-07T05:43:06;29.88;38.96
71396;DHT22;59888;55.814;37.132;2023-08-07T05:45:32;29.89;39.01
71396;DHT22;59888;55.814;37.132;2023-08-07T05:47:58;30.02;38.76
71396;DHT22;59888;55.814;37.132;2023-08-07T05:50:24;30.05;38.62
71396;DHT22;59888;55.814;37.132;2023-08-07T05:52:50;30.07;38.43
71396;DHT22;59888;55.814;37.132;2023-08-07T05:55:16;30.10;38.51
71396;DHT22;59888;55.814;37.132;2023-08-07T05:57:42;30.15;38.43
71396;DHT22;59888;55.814;37.132;2023-08-07T06:00:08;30.23;38.16
71396;DHT22;59888;55.814;37.132;2023-08-07T06:02:48;30.21;37.99
71396;DHT22;59888;55.814;37.132;2023-08-07T06:05:14;30.21;37.68
71396;DHT22;59888;55.814;37.132;2023-08-07T06:07:42;30.18;37.45
71396;DHT22;59888;55.814;37.132;2023-08-07T06:10:08;30.15;37.36
71396;DHT22;59888;55.814;37.132;2023-08-07T06:12:34;30.18;37.33
71396;DHT22;59888;55.814;37.132;2023-08-07T06:15:00;30.20;37.46
71396;DHT22;59888;55.814;37.132;2023-08-07T06:17:27;30.21;37.45
71396;DHT22;59888;55.814;37.132;2023-08-07T06:19:53;30.26;37.23
71396;DHT22;59888;55.814;37.132;2023-08-07T06:22:19;30.32;37.18
71396;DHT22;59888;55.814;37.132;2023-08-07T06:24:44;30.36;37.01
71396;DHT22;59888;55.814;37.132;2023-08-07T06:27:10;30.34;36.82
71396;DHT22;59888;55.814;37.132;2023-08-07T06:29:36;30.35;36.79
71396;DHT22;59888;55.814;37.132;2023-08-07T06:32:02;30.36;36.63
71396;DHT22;59888;55.814;37.132;2023-08-07T06:34:28;30.34;36.37
71396;DHT22;59888;55.814;37.132;2023-08-07T06:36:54;30.28;36.43
71396;DHT22;59888;55.814;37.132;2023-08-07T06:39:20;30.30;36.55
71396;DHT22;59888;55.814;37.132;2023-08-07T06:41:46;30.33;36.30
71396;DHT22;59888;55.814;37.132;2023-08-07T06:44:14;30.40;36.34
71396;DHT22;59888;55.814;37.132;2023-08-07T06:46:40;30.45;36.37
71396;DHT22;59888;55.814;37.132;2023-08-07T06:49:06;30.50;36.19
71396;DHT22;59888;55.814;37.132;2023-08-07T06:51:31;30.56;36.18
71396;DHT22;59888;55.814;37.132;2023-08-07T06:53:57;30.62;36.34
71396;DHT22;59888;55.814;37.132;2023-08-07T06:56:23;30.69;36.27
71396;DHT22;59888;55.814;37.132;2023-08-07T06:58:49;30.72;36.08
71396;DHT22;59888;55.814;37.132;2023-08-07T07:01:15;30.78;36.17
71396;DHT22;59888;55.814;37.132;2023-08-07T07:03:41;30.84;36.07
71396;DHT22;59888;55.814;37.132;2023-08-07T07:06:07;30.90;35.79
71396;DHT22;59888;55.814;37.132;2023-08-07T07:08:36;30.90;35.76
71396;DHT22;59888;55.814;37.132;2023-08-07T07:11:02;30.85;35.80
71396;DHT22;59888;55.814;37.132;2023-08-07T07:13:30;30.95;35.90
71396;DHT22;59888;55.814;37.132;2023-08-07T07:15:56;30.97;35.69
71396;DHT22;59888;55.814;37.132;2023-08-07T07:18:22;30.99;35.58
71396;DHT22;59888;55.814;37.132;2023-08-07T07:20:59;30.91;35.20
71396;DHT22;59888;55.814;37.132;2023-08-07T07:23:27;30.92;35.15
71396;DHT22;59888;55.814;37.132;2023-08-07T07:25:53;30.94;35.34
71396;DHT22;59888;55.814;37.132;2023-08-07T07:28:18;30.93;35.30
71396;DHT22;59888;55.814;37.132;2023-08-07T07:30:44;30.96;35.18
71396;DHT22;59888;55.814;37.132;2023-08-07T07:33:10;30.98;34.92
71396;DHT22;59888;55.814;37.132;2023-08-07T07:35:39;30.95;34.87
71396;DHT22;59888;55.814;37.132;2023-08-07T07:38:09;30.93;34.91
71396;DHT22;59888;55.814;37.132;2023-08-07T07:40:36;30.98;34.95
71396;DHT22;59888;55.814;37.132;2023-08-07T07:43:03;30.98;34.82
71396;DHT22;59888;55.814;37.132;2023-08-07T07:45:29;30.94;34.87
71396;DHT22;59888;55.814;37.132;2023-08-07T07:47:55;31.02;34.75
71396;DHT22;59888;55.814;37.132;2023-08-07T07:50:21;31.07;34.69
71396;DHT22;59888;55.814;37.132;2023-08-07T07:52:47;31.08;34.62
71396;DHT22;59888;55.814;37.132;2023-08-07T07:55:13;31.11;34.66
71396;DHT22;59888;55.814;37.132;2023-08-07T07:57:39;31.12;34.71
71396;DHT22;59888;55.814;37.132;2023-08-07T08:00:07;31.20;34.60
71396;DHT22;59888;55.814;37.132;2023-08-07T08:02:42;31.22;34.44
71396;DHT22;59888;55.814;37.132;2023-08-07T08:05:09;31.27;34.53
71396;DHT22;59888;55.814;37.132;2023-08-07T08:07:38;31.34;34.46
71396;DHT22;59888;55.814;37.132;2023-08-07T08:10:06;31.34;34.37
71396;DHT22;59888;55.814;37.132;2023-08-07T08:12:33;31.34;34.36
71396;DHT22;59888;55.814;37.132;2023-08-07T08:14:59;31.37;34.50
71396;DHT22;59888;55.814;37.132;2023-08-07T08:17:25;31.42;34.33
71396;DHT22;59888;55.814;37.132;2023-08-07T08:19:51;31.42;34.21
71396;DHT22;59888;55.814;37.132;2023-08-07T08:22:18;31.38;34.01
71396;DHT22;59888;55.814;37.132;2023-08-07T08:24:44;31.34;34.01
71396;DHT22;59888;55.814;37.132;2023-08-07T08:27:10;31.35;34.20
71396;DHT22;59888;55.814;37.132;2023-08-07T08:29:36;31.35;34.05
71396;DHT22;59888;55.814;37.132;2023-08-07T08:32:02;31.31;34.12
71396;DHT22;59888;55.814;37.132;2023-08-07T08:34:28;31.30;33.87
71396;DHT22;59888;55.814;37.132;2023-08-07T08:36:54;31.29;33.80
71396;DHT22;59888;55.814;37.132;2023-08-07T08:39:20;31.27;33.96
71396;DHT22;59888;55.814;37.132;2023-08-07T08:41:47;31.29;33.76
71396;DHT22;59888;55.814;37.132;2023-08-07T08:44:14;31.35;33.67
71396;DHT22;59888;55.814;37.132;2023-08-07T08:46:42;31.38;33.79
71396;DHT22;59888;55.814;37.132;2023-08-07T08:49:08;31.39;33.48
71396;DHT22;59888;55.814;37.132;2023-08-07T08:51:37;31.44;33.77
71396;DHT22;59888;55.814;37.132;2023-08-07T08:54:03;31.48;33.51
71396;DHT22;59888;55.814;37.132;2023-08-07T08:56:30;31.53;33.54
71396;DHT22;59888;55.814;37.132;2023-08-07T08:58:57;31.54;33.47
71396;DHT22;59888;55.814;37.132;2023-08-07T09:01:23;31.61;33.18
71396;DHT22;59888;55.814;37.132;2023-08-07T09:03:53;31.64;33.49
71396;DHT22;59888;55.814;37.132;2023-08-07T09:06:21;31.60;33.12
71396;DHT22;59888;55.814;37.132;2023-08-07T09:08:47;31.58;33.10
71396;DHT22;59888;55.814;37.132;2023-08-07T09:11:16;31.61;33.20
71396;DHT22;59888;55.814;37.132;2023-08-07T09:13:45;31.73;33.20
71396;DHT22;59888;55.814;37.132;2023-08-07T09:16:13;31.78;33.12
71396;DHT22;59888;55.814;37.132;2023-08-07T09:18:40;31.82;33.12
71396;DHT22;59888;55.814;37.132;2023-08-07T09:21:09;31.88;33.12
71396;DHT22;59888;55.814;37.132;2023-08-07T09:23:35;31.90;32.33
71396;DHT22;59888;55.814;37.132;2023-08-07T09:26:02;31.85;32.71
71396;DHT22;59888;55.814;37.132;2023-08-07T09:28:29;31.88;32.85
71396;DHT22;59888;55.814;37.132;2023-08-07T09:30:55;31.89;32.74
71396;DHT22;59888;55.814;37.132;2023-08-07T09:33:26;31.93;32.48
71396;DHT22;59888;55.814;37.132;2023-08-07T09:35:52;31.93;32.60
71396;DHT22;59888;55.814;37.132;2023-08-07T09:38:22;31.95;31.97
71396;DHT22;59888;55.814;37.132;2023-08-07T09:40:49;31.98;32.59
71396;DHT22;59888;55.814;37.132;2023-08-07T09:43:22;32.08;32.31
71396;DHT22;59888;55.814;37.132;2023-08-07T09:45:48;32.09;32.35
71396;DHT22;59888;55.814;37.132;2023-08-07T09:48:24;32.08;31.72
71396;DHT22;59888;55.814;37.132;2023-08-07T09:50:51;32.09;32.19
71396;DHT22;59888;55.814;37.132;2023-08-07T09:53:17;32.12;32.09
71396;DHT22;59888;55.814;37.132;2023-08-07T09:55:43;32.11;31.88
71396;DHT22;59888;55.814;37.132;2023-08-07T09:58:11;32.16;32.07
71396;DHT22;59888;55.814;37.132;2023-08-07T10:00:39;32.12;31.99
71396;DHT22;59888;55.814;37.132;2023-08-07T10:03:06;32.12;31.90
71396;DHT22;59888;55.814;37.132;2023-08-07T10:05:32;32.17;32.04
71396;DHT22;59888;55.814;37.132;2023-08-07T10:07:58;32.20;32.02
71396;DHT22;59888;55.814;37.132;2023-08-07T10:10:24;32.29;31.97
71396;DHT22;59888;55.814;37.132;2023-08-07T10:12:52;32.32;31.96
71396;DHT22;59888;55.814;37.132;2023-08-07T10:15:19;32.39;31.81
71396;DHT22;59888;55.814;37.132;2023-08-07T10:17:45;32.39;31.35
71396;DHT22;59888;55.814;37.132;2023-08-07T10:20:12;32.42;31.72
71396;DHT22;59888;55.814;37.132;2023-08-07T10:22:38;32.41;31.39
71396;DHT22;59888;55.814;37.132;2023-08-07T10:25:06;32.41;31.46
71396;DHT22;59888;55.814;37.132;2023-08-07T10:27:35;32.46;30.89
71396;DHT22;59888;55.814;37.132;2023-08-07T10:30:06;32.48;31.14
71396;DHT22;59888;55.814;37.132;2023-08-07T10:32:35;32.46;31.08
71396;DHT22;59888;55.814;37.132;2023-08-07T10:35:05;32.55;31.38
71396;DHT22;59888;55.814;37.132;2023-08-07T10:37:44;32.54;30.77
71396;DHT22;59888;55.814;37.132;2023-08-07T10:40:12;32.60;31.06
71396;DHT22;59888;55.814;37.132;2023-08-07T10:45:22;32.61;31.04
71396;DHT22;59888;55.814;37.132;2023-08-07T10:48:11;32.54;30.41
71396;DHT22;59888;55.814;37.132;2023-08-07T10:51:02;32.48;30.48
71396;DHT22;59888;55.814;37.132;2023-08-07T10:53:36;32.56;30.76
71396;DHT22;59888;55.814;37.132;2023-08-07T10:58:40;32.72;30.46
71396;DHT22;59888;55.814;37.132;2023-08-07T11:04:13;32.81;30.06
71396;DHT22;59888;55.814;37.132;2023-08-07T11:06:41;32.85;30.19
71396;DHT22;59888;55.814;37.132;2023-08-07T11:09:09;32.92;30.35
71396;DHT22;59888;55.814;37.132;2023-08-07T11:11:48;33.03;29.83
71396;DHT22;59888;55.814;37.132;2023-08-07T11:14:16;33.12;30.37
71396;DHT22;59888;55.814;37.132;2023-08-07T11:16:44;33.15;29.84
71396;DHT22;59888;55.814;37.132;2023-08-07T11:19:12;33.20;29.99
71396;DHT22;59888;55.814;37.132;2023-08-07T11:21:40;33.16;29.62
71396;DHT22;59888;55.814;37.132;2023-08-07T11:24:06;33.14;29.84
71396;DHT22;59888;55.814;37.132;2023-08-07T11:26:32;33.20;29.80
71396;DHT22;59888;55.814;37.132;2023-08-07T11:28:58;33.19;29.67
71396;DHT22;59888;55.814;37.132;2023-08-07T11:31:25;33.20;29.06
71396;DHT22;59888;55.814;37.132;2023-08-07T11:33:52;33.15;29.42
71396;DHT22;59888;55.814;37.132;2023-08-07T11:36:19;33.19;29.62
71396;DHT22;59888;55.814;37.132;2023-08-07T11:38:45;33.30;29.77
71396;DHT22;59888;55.814;37.132;2023-08-07T11:41:13;33.32;29.70
71396;DHT22;59888;55.814;37.132;2023-08-07T11:43:40;33.36;29.71
71396;DHT22;59888;55.814;37.132;2023-08-07T11:46:08;33.42;29.16
71396;DHT22;59888;55.814;37.132;2023-08-07T11:48:36;33.47;29.80
71396;DHT22;59888;55.814;37.132;2023-08-07T11:51:03;33.60;29.93
71396;DHT22;59888;55.814;37.132;2023-08-07T11:53:31;33.55;29.54
71396;DHT22;59888;55.814;37.132;2023-08-07T11:55:58;33.61;29.71
71396;DHT22;59888;55.814;37.132;2023-08-07T11:58:27;33.61;29.19
71396;DHT22;59888;55.814;37.132;2023-08-07T12:00:54;33.56;29.41
71396;DHT22;59888;55.814;37.132;2023-08-07T12:03:28;33.56;29.47
71396;DHT22;59888;55.814;37.132;2023-08-07T12:05:56;33.58;29.53
71396;DHT22;59888;55.814;37.132;2023-08-07T12:08:22;33.65;29.77
71396;DHT22;59888;55.814;37.132;2023-08-07T12:10:54;33.70;29.38
71396;DHT22;59888;55.814;37.132;2023-08-07T12:13:24;33.71;29.58
71396;DHT22;59888;55.814;37.132;2023-08-07T12:15:53;33.67;29.36
71396;DHT22;59888;55.814;37.132;2023-08-07T12:18:20;33.67;29.58
71396;DHT22;59888;55.814;37.132;2023-08-07T12:20:50;33.66;29.55
71396;DHT22;59888;55.814;37.132;2023-08-07T12:23:19;33.70;29.59
71396;DHT22;59888;55.814;37.132;2023-08-07T12:25:46;33.79;29.75
71396;DHT22;59888;55.814;37.132;2023-08-07T12:28:12;33.87;29.70
71396;DHT22;59888;55.814;37.132;2023-08-07T12:30:38;33.88;29.51
71396;DHT22;59888;55.814;37.132;2023-08-07T12:33:04;33.88;29.37
71396;DHT22;59888;55.814;37.132;2023-08-07T12:35:31;33.87;29.38
71396;DHT22;59888;55.814;37.132;2023-08-07T12:37:57;33.92;29.29
71396;DHT22;59888;55.814;37.132;2023-08-07T12:40:24;33.93;29.39
71396;DHT22;59888;55.814;37.132;2023-08-07T12:42:50;34.02;29.51
71396;DHT22;59888;55.814;37.132;2023-08-07T12:45:16;34.16;29.32
71396;DHT22;59888;55.814;37.132;2023-08-07T12:47:45;34.31;29.43
71396;DHT22;59888;55.814;37.132;2023-08-07T12:50:11;34.41;28.86
71396;DHT22;59888;55.814;37.132;2023-08-07T12:52:37;34.67;29.04
71396;DHT22;59888;55.814;37.132;2023-08-07T12:55:04;35.13;28.48
71396;DHT22;59888;55.814;37.132;2023-08-07T12:57:31;35.89;28.27
71396;DHT22;59888;55.814;37.132;2023-08-07T12:59:57;37.11;26.91
71396;DHT22;59888;55.814;37.132;2023-08-07T13:02:23;38.84;25.19
71396;DHT22;59888;55.814;37.132;2023-08-07T13:04:49;40.97;24.26
71396;DHT22;59888;55.814;37.132;2023-08-07T13:07:17;42.83;22.10
71396;DHT22;59888;55.814;37.132;2023-08-07T13:09:44;44.21;21.65
71396;DHT22;59888;55.814;37.132;2023-08-07T13:12:10;45.40;20.12
71396;DHT22;59888;55.814;37.132;2023-08-07T13:14:36;46.80;19.54
71396;DHT22;59888;55.814;37.132;2023-08-07T13:17:06;47.79;18.63
71396;DHT22;59888;55.814;37.132;2023-08-07T13:19:32;48.71;18.01
71396;DHT22;59888;55.814;37.132;2023-08-07T13:21:58;49.38;17.70
71396;DHT22;59888;55.814;37.132;2023-08-07T13:24:24;50.17;17.08
71396;DHT22;59888;55.814;37.132;2023-08-07T13:26:50;50.84;16.55
71396;DHT22;59888;55.814;37.132;2023-08-07T13:29:15;51.40;16.58
71396;DHT22;59888;55.814;37.132;2023-08-07T13:31:41;51.74;15.61
71396;DHT22;59888;55.814;37.132;2023-08-07T13:34:09;51.91;15.89
71396;DHT22;59888;55.814;37.132;2023-08-07T13:36:37;52.13;15.03
71396;DHT22;59888;55.814;37.132;2023-08-07T13:39:06;52.39;14.37
71396;DHT22;59888;55.814;37.132;2023-08-07T13:41:33;52.00;14.96
71396;DHT22;59888;55.814;37.132;2023-08-07T13:43:58;51.78;15.00
71396;DHT22;59888;55.814;37.132;2023-08-07T13:46:25;52.00;14.50
71396;DHT22;59888;55.814;37.132;2023-08-07T13:48:51;52.19;14.55
71396;DHT22;59888;55.814;37.132;2023-08-07T13:51:19;52.27;14.96
71396;DHT22;59888;55.814;37.132;2023-08-07T13:53:45;52.13;14.52
71396;DHT22;59888;55.814;37.132;2023-08-07T13:56:11;52.48;14.71
71396;DHT22;59888;55.814;37.132;2023-08-07T13:58:39;52.85;14.11
71396;DHT22;59888;55.814;37.132;2023-08-07T14:01:05;52.85;14.00
71396;DHT22;59888;55.814;37.132;2023-08-07T14:03:31;53.05;13.89
71396;DHT22;59888;55.814;37.132;2023-08-07T14:05:58;53.45;13.76
71396;DHT22;59888;55.814;37.132;2023-08-07T14:08:24;53.52;13.09
71396;DHT22;59888;55.814;37.132;2023-08-07T14:10:50;53.27;13.31
71396;DHT22;59888;55.814;37.132;2023-08-07T14:13:16;53.14;13.36
71396;DHT22;59888;55.814;37.132;2023-08-07T14:15:42;53.09;13.70
71396;DHT22;59888;55.814;37.132;2023-08-07T14:18:09;53.09;12.97
71396;DHT22;59888;55.814;37.132;2023-08-07T14:20:36;52.68;12.96
71396;DHT22;59888;55.814;37.132;2023-08-07T14:23:03;52.54;13.01
71396;DHT22;59888;55.814;37.132;2023-08-07T14:25:29;52.49;12.85
71396;DHT22;59888;55.814;37.132;2023-08-07T14:27:55;52.42;13.13
71396;DHT22;59888;55.814;37.132;2023-08-07T14:30:22;52.17;12.41
71396;DHT22;59888;55.814;37.132;2023-08-07T14:32:48;52.16;12.88
71396;DHT22;59888;55.814;37.132;2023-08-07T14:35:15;52.24;12.49
71396;DHT22;59888;55.814;37.132;2023-08-07T14:37:41;52.08;12.68
71396;DHT22;59888;55.814;37.132;2023-08-07T14:40:07;52.22;12.74
71396;DHT22;59888;55.814;37.132;2023-08-07T14:42:34;52.30;12.85
71396;DHT22;59888;55.814;37.132;2023-08-07T14:45:00;52.16;12.48
71396;DHT22;59888;55.814;37.132;2023-08-07T14:47:26;51.81;12.85
71396;DHT22;59888;55.814;37.132;2023-08-07T14:49:52;51.33;12.62
71396;DHT22;59888;55.814;37.132;2023-08-07T14:52:18;50.96;12.42
71396;DHT22;59888;55.814;37.132;2023-08-07T14:54:44;50.65;12.75
71396;DHT22;59888;55.814;37.132;2023-08-07T14:57:10;50.41;12.98
71396;DHT22;59888;55.814;37.132;2023-08-07T14:59:37;50.01;12.64
71396;DHT22;59888;55.814;37.132;2023-08-07T15:02:03;49.61;12.78
71396;DHT22;59888;55.814;37.132;2023-08-07T15:04:29;49.36;12.75
71396;DHT22;59888;55.814;37.132;2023-08-07T15:06:56;49.11;12.78
71396;DHT22;59888;55.814;37.132;2023-08-07T15:09:22;48.79;13.15
71396;DHT22;59888;55.814;37.132;2023-08-07T15:11:48;48.60;12.86
71396;DHT22;59888;55.814;37.132;2023-08-07T15:14:15;48.42;13.13
71396;DHT22;59888;55.814;37.132;2023-08-07T15:16:41;48.10;13.41
71396;DHT22;59888;55.814;37.132;2023-08-07T15:19:07;47.82;13.52
71396;DHT22;59888;55.814;37.132;2023-08-07T15:21:33;47.75;13.59
71396;DHT22;59888;55.814;37.132;2023-08-07T15:23:59;47.67;13.64